Time;durP1;ratioP1;P1;durP2;ratioP2;P2;SDS_P1;SDS_P2;PMS_P1;PMS_P2;Temp;Humidity;BMP_temperature;BMP_pressure;BME280_temperature;BME280_humidity;BME280_pressure;Samples;Min_cycle;Max_cycle;Signal;HPM_P1;HPM_P2
2022/07/14 00:00:45;;;;;;;2.17;1.32;;;;;;;15.42;100.00;99276.95;1726145;83;21046;-70
2022/07/14 00:03:11;;;;;;;6.40;1.60;;;;;;;15.44;100.00;99286.98;1726614;82;21775;-70
2022/07/14 00:05:38;;;;;;;1.40;1.25;;;;;;;15.46;100.00;99287.69;1726131;82;20947;-71
2022/07/14 00:08:05;;;;;;;5.67;1.90;;;;;;;15.47;100.00;99296.03;1726089;82;21110;-71
2022/07/14 00:10:32;;;;;;;2.70;1.30;;;;;;;15.47;100.00;99291.57;1726166;83;21046;-70
2022/07/14 00:12:59;;;;;;;8.25;1.60;;;;;;;15.51;100.00;99297.52;1726182;83;21494;-70
2022/07/14 00:15:27;;;;;;;1.62;1.32;;;;;;;15.51;100.00;99296.20;1726213;83;21863;-69
2022/07/14 00:17:56;;;;;;;2.47;1.20;;;;;;;15.52;100.00;99295.23;1726236;83;21028;-69
2022/07/14 00:20:22;;;;;;;3.42;1.47;;;;;;;15.49;100.00;99298.11;1708075;83;21686;-70
2022/07/14 00:22:48;;;;;;;2.65;1.30;;;;;;;15.48;100.00;99302.57;1724743;83;21018;-71
2022/07/14 00:25:15;;;;;;;3.90;1.20;;;;;;;15.47;100.00;99311.95;1725655;83;22090;-70
2022/07/14 00:27:43;;;;;;;3.65;1.55;;;;;;;15.46;100.00;99307.59;1726277;83;21253;-70
2022/07/14 00:30:10;;;;;;;2.37;1.35;;;;;;;15.45;100.00;99310.73;1726112;82;21048;-71
2022/07/14 00:32:39;;;;;;;2.60;1.47;;;;;;;15.46;100.00;99314.22;1694096;84;21037;-70
2022/07/14 00:35:08;;;;;;;3.05;1.40;;;;;;;15.46;100.00;99319.07;1694006;84;21111;-69
2022/07/14 00:37:35;;;;;;;3.00;1.30;;;;;;;15.44;100.00;99316.16;1692612;84;21088;-70
2022/07/14 00:40:04;;;;;;;6.85;1.67;;;;;;;15.43;100.00;99310.47;1692867;84;21601;-70
2022/07/14 00:42:46;;;;;;;3.10;1.30;;;;;;;15.44;100.00;99317.48;1693955;84;21013;-69
2022/07/14 00:45:19;;;;;;;3.12;1.40;;;;;;;15.42;100.00;99311.44;1663443;85;21036;-69
2022/07/14 00:47:47;;;;;;;4.25;1.50;;;;;;;15.42;100.00;99317.59;1686683;85;21317;-68
2022/07/14 00:50:16;;;;;;;1.80;1.30;;;;;;;15.43;100.00;99318.42;1686727;85;21104;-69
2022/07/14 00:52:45;;;;;;;5.28;1.47;;;;;;;15.43;100.00;99325.06;1686598;85;21127;-70
2022/07/14 00:55:13;;;;;;;4.00;1.30;;;;;;;15.43;100.00;99319.75;1692232;83;21049;-68
2022/07/14 00:57:40;;;;;;;2.87;1.30;;;;;;;15.44;100.00;99316.16;1691821;84;21112;-68
2022/07/14 01:00:10;;;;;;;4.10;1.45;;;;;;;15.43;100.00;99319.75;1691839;84;21100;-68
2022/07/14 01:02:37;;;;;;;3.10;1.20;;;;;;;15.40;100.00;99320.81;1691945;84;21068;-70
2022/07/14 01:05:06;;;;;;;6.08;1.35;;;;;;;15.39;100.00;99322.24;1691780;84;21268;-69
2022/07/14 01:07:33;;;;;;;2.85;1.30;;;;;;;15.37;100.00;99322.82;1692026;84;21121;-69
2022/07/14 01:10:00;;;;;;;4.97;1.20;;;;;;;15.38;100.00;99327.19;1691770;84;21132;-68
2022/07/14 01:12:27;;;;;;;5.87;1.37;;;;;;;15.38;100.00;99329.84;1691878;84;21081;-69
2022/07/14 01:14:54;;;;;;;2.12;1.40;;;;;;;15.38;100.00;99332.02;1692003;84;21151;-69
2022/07/14 01:17:21;;;;;;;1.72;0.95;;;;;;;15.37;100.00;99334.77;1692082;84;21326;-70
2022/07/14 01:19:49;;;;;;;2.12;1.20;;;;;;;15.38;100.00;99332.02;1691741;84;21090;-68
2022/07/14 01:22:16;;;;;;;2.98;1.40;;;;;;;15.39;100.00;99332.41;1691931;84;21093;-70
2022/07/14 01:24:43;;;;;;;4.12;1.27;;;;;;;15.41;100.00;99338.42;1691866;84;21093;-70
2022/07/14 01:27:11;;;;;;;1.12;1.02;;;;;;;15.41;100.00;99341.56;1691785;84;21061;-68
2022/07/14 01:29:38;;;;;;;3.12;1.20;;;;;;;15.40;100.00;99333.24;1691836;84;21290;-69
2022/07/14 01:32:06;;;;;;;3.10;1.85;;;;;;;15.41;100.00;99336.25;1691928;84;21065;-70
2022/07/14 01:34:33;;;;;;;4.37;1.30;;;;;;;15.40;100.00;99342.05;1657926;86;21033;-70
2022/07/14 01:37:00;;;;;;;2.45;1.05;;;;;;;15.38;100.00;99343.11;1676841;85;21579;-71
2022/07/14 01:39:26;;;;;;;4.25;1.42;;;;;;;15.38;100.00;99339.13;1685890;85;21059;-70
2022/07/14 01:41:54;;;;;;;3.33;1.15;;;;;;;15.35;100.00;99339.35;1685868;85;21514;-70
2022/07/14 01:44:21;;;;;;;4.12;1.12;;;;;;;15.31;100.00;99340.03;1686103;84;21222;-71
2022/07/14 01:46:48;;;;;;;3.65;1.20;;;;;;;15.27;100.00;99342.03;1686049;85;21577;-69
2022/07/14 01:49:15;;;;;;;4.30;1.47;;;;;;;15.26;100.00;99344.33;1686122;85;21158;-72
2022/07/14 01:51:44;;;;;;;3.90;1.27;;;;;;;15.26;100.00;99350.95;1685830;85;21113;-70
2022/07/14 01:54:11;;;;;;;2.35;1.30;;;;;;;15.26;100.00;99348.30;1681292;84;21130;-70
2022/07/14 01:56:41;;;;;;;2.25;1.07;;;;;;;15.24;100.00;99347.55;1678395;85;21080;-70
2022/07/14 01:59:09;;;;;;;2.55;1.30;;;;;;;15.21;100.00;99350.43;1678067;85;21525;-70
2022/07/14 02:01:40;;;;;;;3.17;1.20;;;;;;;15.19;100.00;99354.98;1678306;85;21069;-70
2022/07/14 02:04:14;;;;;;;4.97;1.07;;;;;;;15.19;100.00;99361.62;1678321;85;21084;-68
2022/07/14 02:06:47;;;;;;;5.00;1.57;;;;;;;15.19;100.00;99361.62;1678693;85;21209;-70
2022/07/14 02:09:16;;;;;;;1.92;1.60;;;;;;;15.17;100.00;99358.22;1675559;85;21583;-70
2022/07/14 02:14:29;;;;;;;1.62;1.20;;;;;;;15.18;100.00;99363.88;1678397;85;21139;-70
2022/07/14 02:16:57;;;;;;;2.80;1.12;;;;;;;15.17;100.00;99366.17;1678705;85;21005;-70
2022/07/14 02:19:26;;;;;;;2.15;1.15;;;;;;;15.18;100.00;99374.48;1678226;85;21529;-71
2022/07/14 02:21:54;;;;;;;4.17;1.12;;;;;;;15.19;100.00;99376.20;1678309;85;21010;-70
2022/07/14 02:24:21;;;;;;;5.03;1.30;;;;;;;15.18;100.00;99375.81;1678076;85;21056;-70
2022/07/14 02:26:50;;;;;;;3.83;1.35;;;;;;;15.18;100.00;99379.80;1677978;85;21063;-70
2022/07/14 02:29:19;;;;;;;2.50;1.07;;;;;;;15.20;100.00;99380.55;1678375;85;21116;-69
2022/07/14 02:31:46;;;;;;;6.00;2.00;;;;;;;15.21;100.00;99384.07;1678066;85;21158;-68
2022/07/14 02:34:15;;;;;;;1.50;1.30;;;;;;;15.23;100.00;99385.66;1678013;85;21093;-68
2022/07/14 02:36:42;;;;;;;2.30;1.22;;;;;;;15.22;100.00;99388.41;1678064;85;21060;-70
2022/07/14 02:39:09;;;;;;;2.08;1.57;;;;;;;15.22;100.00;99400.34;1650920;85;21541;-68
2022/07/14 02:41:35;;;;;;;2.45;1.40;;;;;;;15.22;100.00;99402.51;1678042;85;21033;-70
2022/07/14 02:44:03;;;;;;;1.22;1.10;;;;;;;15.25;100.00;99401.45;1678324;85;21230;-70
2022/07/14 02:46:30;;;;;;;1.30;1.20;;;;;;;15.26;100.00;99407.98;1687764;84;21584;-71
2022/07/14 02:48:57;;;;;;;4.55;1.25;;;;;;;15.27;100.00;99408.34;1691087;84;21540;-70
2022/07/14 02:51:24;;;;;;;2.40;1.52;;;;;;;15.28;100.00;99410.06;1691026;84;21552;-68
2022/07/14 02:53:51;;;;;;;4.78;1.30;;;;;;;15.29;100.00;99405.11;1676602;84;21499;-70
2022/07/14 02:56:17;;;;;;;2.10;1.40;;;;;;;15.28;100.00;99411.39;1660260;86;21765;-69
2022/07/14 02:58:46;;;;;;;2.10;1.20;;;;;;;15.27;100.00;99418.11;1706325;83;21041;-69
2022/07/14 03:01:13;;;;;;;3.98;1.40;;;;;;;15.26;100.00;99417.27;1660341;86;21138;-70
2022/07/14 03:03:40;;;;;;;3.70;1.30;;;;;;;15.24;100.00;99421.83;1706157;84;21068;-72
2022/07/14 03:06:17;;;;;;;4.12;1.30;;;;;;;15.24;100.00;99417.84;1706331;84;21096;-72
2022/07/14 03:08:46;;;;;;;2.85;1.40;;;;;;;15.26;100.00;99423.91;1660470;86;21960;-70
2022/07/14 03:11:13;;;;;;;1.55;1.32;;;;;;;15.28;100.00;99423.33;1706272;84;21026;-71
2022/07/14 03:13:40;;;;;;;6.87;1.77;;;;;;;15.29;100.00;99427.66;1706529;83;21038;-71
2022/07/14 03:16:09;;;;;;;4.58;1.52;;;;;;;15.30;100.00;99427.21;1680386;84;21025;-70
2022/07/14 03:18:41;;;;;;;3.90;1.40;;;;;;;15.30;100.00;99429.37;1706454;84;21060;-70
2022/07/14 03:21:10;;;;;;;3.02;1.35;;;;;;;15.36;100.00;99439.20;1634396;86;21143;-71
2022/07/14 03:23:37;;;;;;;1.45;1.27;;;;;;;15.38;100.00;99441.27;1706244;84;21108;-70
2022/07/14 03:26:06;;;;;;;4.87;1.55;;;;;;;15.42;100.00;99437.47;1660511;86;21131;-71
2022/07/14 03:28:33;;;;;;;2.70;1.27;;;;;;;15.46;100.00;99434.95;1706333;84;21100;-71
2022/07/14 03:30:59;;;;;;;1.15;1.07;;;;;;;15.49;100.00;99438.73;1660336;86;21141;-71
2022/07/14 03:33:26;;;;;;;3.65;1.27;;;;;;;15.55;100.00;99447.59;1706311;84;21107;-71
2022/07/14 03:35:53;;;;;;;4.60;1.30;;;;;;;15.61;100.00;99448.50;1706447;84;21009;-70
2022/07/14 03:38:19;;;;;;;1.60;1.20;;;;;;;15.68;100.00;99455.09;1706362;84;21041;-70
2022/07/14 03:40:48;;;;;;;1.40;1.30;;;;;;;15.75;100.00;99450.72;1706465;83;21115;-70
2022/07/14 03:43:16;;;;;;;2.58;1.22;;;;;;;15.78;100.00;99455.81;1660991;86;21149;-72
2022/07/14 03:45:44;;;;;;;3.58;1.27;;;;;;;15.80;100.00;99465.84;1712425;82;21117;-68
2022/07/14 03:48:11;;;;;;;2.00;1.20;;;;;;;15.79;100.00;99462.35;1709619;83;21081;-71
2022/07/14 03:50:41;;;;;;;1.22;1.12;;;;;;;15.79;100.00;99473.45;1726046;82;21049;-69
2022/07/14 03:53:10;;;;;;;2.35;1.17;;;;;;;15.77;100.00;99471.38;1726174;83;21133;-70
2022/07/14 03:55:37;;;;;;;3.22;1.30;;;;;;;15.75;100.00;99471.96;1725661;81;21085;-71
2022/07/14 03:58:04;;;;;;;2.42;1.22;;;;;;;15.72;100.00;99475.20;1726875;82;21214;-71
2022/07/14 04:00:33;;;;;;;3.20;1.22;;;;;;;15.70;100.00;99477.10;1731417;82;21567;-71
2022/07/14 04:02:59;;;;;;;2.40;1.22;;;;;;;15.71;100.00;99486.78;1724449;83;21072;-71
2022/07/14 04:05:28;;;;;;;1.15;1.05;;;;;;;15.70;100.00;99487.72;1724339;83;21065;-71
2022/07/14 04:08:01;;;;;;;1.30;1.20;;;;;;;15.68;100.00;99490.08;1723916;82;21158;-71
2022/07/14 04:10:29;;;;;;;4.05;1.05;;;;;;;15.64;100.00;99488.09;1723851;82;21057;-71
2022/07/14 04:12:59;;;;;;;4.53;1.20;;;;;;;15.62;100.00;99495.34;1749469;81;21033;-72
2022/07/14 04:15:27;;;;;;;2.27;1.40;;;;;;;15.65;100.00;99492.95;1725404;83;21026;-71
2022/07/14 04:17:53;;;;;;;3.70;1.65;;;;;;;15.71;100.00;99501.38;1725943;82;21266;-71
2022/07/14 04:20:21;;;;;;;1.60;1.15;;;;;;;15.74;100.00;99497.66;1725725;82;21060;-69
2022/07/14 04:22:49;;;;;;;2.75;1.20;;;;;;;15.77;100.00;99499.25;1724583;83;22111;-70
2022/07/14 04:25:17;;;;;;;5.33;1.45;;;;;;;15.79;100.00;99496.02;1724361;83;21069;-72
2022/07/14 04:27:44;;;;;;;1.30;1.20;;;;;;;15.82;100.00;99509.07;1725756;83;21104;-70
2022/07/14 04:30:12;;;;;;;1.87;1.17;;;;;;;15.81;100.00;99503.41;1725732;82;21049;-72
2022/07/14 04:32:40;;;;;;;5.90;1.27;;;;;;;15.81;100.00;99516.20;1725752;83;21136;-70
2022/07/14 04:35:09;;;;;;;3.42;1.10;;;;;;;15.81;100.00;99517.52;1725141;82;21569;-71
2022/07/14 04:37:35;;;;;;;4.28;1.30;;;;;;;15.82;100.00;99520.53;1723871;82;21010;-71
2022/07/14 04:40:06;;;;;;;7.78;2.08;;;;;;;15.84;100.00;99523.09;1723138;82;21049;-70
2022/07/14 04:42:32;;;;;;;2.75;1.37;;;;;;;15.82;100.00;99517.88;1724644;82;20997;-71
2022/07/14 04:44:59;;;;;;;5.37;1.10;;;;;;;15.83;100.00;99530.70;1724429;83;21046;-72
2022/07/14 04:47:26;;;;;;;2.85;1.40;;;;;;;15.84;100.00;99527.08;1724406;83;21137;-71
2022/07/14 04:52:48;;;;;;;4.70;1.35;;;;;;;15.87;100.00;99532.17;1724380;82;21065;-71
2022/07/14 04:55:33;;;;;;;3.55;1.00;;;;;;;15.88;100.00;99533.41;1696766;83;21557;-72
2022/07/14 04:58:01;;;;;;;1.92;1.02;;;;;;;15.87;100.00;99536.16;1671198;84;21037;-72
2022/07/14 05:00:28;;;;;;;1.57;1.12;;;;;;;15.83;100.00;99545.31;1696837;84;21620;-73
2022/07/14 05:02:55;;;;;;;1.40;1.10;;;;;;;15.86;100.00;99546.41;1697148;84;21494;-70
2022/07/14 05:05:23;;;;;;;2.10;1.30;;;;;;;15.86;100.00;99541.10;1696884;84;21040;-71
2022/07/14 05:07:50;;;;;;;6.00;1.98;;;;;;;15.89;100.00;99550.18;1697114;84;21056;-71
2022/07/14 05:10:17;;;;;;;3.17;1.10;;;;;;;15.90;100.00;99546.59;1696995;84;21068;-72
2022/07/14 05:12:44;;;;;;;2.12;1.30;;;;;;;15.93;100.00;99546.36;1697105;84;21598;-72
2022/07/14 05:15:12;;;;;;;2.00;1.17;;;;;;;16.02;100.00;99556.36;1696843;84;21033;-70
2022/07/14 05:17:39;;;;;;;1.20;1.05;;;;;;;16.06;100.00;99560.51;1697222;84;21045;-70
2022/07/14 05:20:10;;;;;;;4.08;1.45;;;;;;;16.10;100.00;99564.66;1662735;86;21568;-70
2022/07/14 05:22:38;;;;;;;3.35;1.17;;;;;;;16.15;100.00;99571.83;1663037;86;21036;-70
2022/07/14 05:25:08;;;;;;;3.85;1.40;;;;;;;16.23;100.00;99577.92;1667309;84;21108;-69
2022/07/14 05:27:37;;;;;;;1.40;1.30;;;;;;;16.22;100.00;99570.93;1690257;84;21061;-69
2022/07/14 05:30:07;;;;;;;1.35;1.00;;;;;;;16.26;100.00;99575.53;1689781;84;21018;-70
2022/07/14 05:32:35;;;;;;;1.35;1.20;;;;;;;16.35;100.00;99573.08;1689699;84;21037;-71
2022/07/14 05:35:04;;;;;;;2.67;1.20;;;;;;;16.52;100.00;99576.39;1689991;84;21065;-69
2022/07/14 05:37:31;;;;;;;2.25;1.12;;;;;;;16.65;100.00;99571.88;1689630;84;21053;-69
2022/07/14 05:39:57;;;;;;;2.10;1.30;;;;;;;16.76;100.00;99577.77;1689677;84;21056;-69
2022/07/14 05:42:24;;;;;;;4.12;1.40;;;;;;;16.83;100.00;99582.20;1689375;84;21065;-70
2022/07/14 05:44:51;;;;;;;2.08;1.20;;;;;;;16.90;100.00;99580.80;1689579;84;21040;-69
2022/07/14 05:47:19;;;;;;;2.67;1.05;;;;;;;16.98;100.00;99577.97;1685986;84;21073;-70
2022/07/14 05:49:46;;;;;;;2.50;0.90;;;;;;;17.11;100.00;99587.70;1684420;85;21179;-70
2022/07/14 05:52:14;;;;;;;2.75;1.30;;;;;;;17.20;100.00;99587.03;1684150;85;21068;-68
2022/07/14 05:54:41;;;;;;;2.12;1.15;;;;;;;17.32;100.00;99588.81;1719981;82;20992;-69
2022/07/14 05:57:09;;;;;;;2.92;1.17;;;;;;;17.46;100.00;99591.79;1720767;83;21572;-68
2022/07/14 05:59:36;;;;;;;2.83;1.20;;;;;;;17.60;100.00;99590.76;1720672;83;21090;-69
2022/07/14 06:02:04;;;;;;;5.55;1.20;;;;;;;17.69;100.00;99592.73;1702559;83;21153;-69
2022/07/14 06:04:32;;;;;;;2.95;1.07;;;;;;;17.77;100.00;99595.65;1720673;83;21535;-70
2022/07/14 06:07:00;;;;;;;2.50;1.25;;;;;;;17.87;100.00;99596.32;1720718;82;21567;-69
2022/07/14 06:09:27;;;;;;;6.35;1.20;;;;;;;18.07;100.00;99587.66;1720519;83;21012;-69
2022/07/14 06:11:54;;;;;;;2.67;1.20;;;;;;;18.29;100.00;99589.53;1720703;83;21139;-69
2022/07/14 06:14:21;;;;;;;2.70;1.30;;;;;;;18.48;100.00;99588.93;1720659;83;21116;-69
2022/07/14 06:16:48;;;;;;;4.80;1.20;;;;;;;18.64;100.00;99602.75;1720780;83;21087;-70
2022/07/14 06:19:15;;;;;;;4.85;1.80;;;;;;;18.78;98.85;99599.52;1720735;83;21071;-69
2022/07/14 06:21:43;;;;;;;1.85;1.15;;;;;;;18.86;98.64;99595.27;1720633;83;21042;-69
2022/07/14 06:24:12;;;;;;;2.17;1.07;;;;;;;18.98;97.89;99596.56;1720698;83;21043;-70
2022/07/14 06:26:39;;;;;;;2.42;1.20;;;;;;;19.08;96.87;99597.04;1720575;83;21166;-70
2022/07/14 06:29:08;;;;;;;3.15;1.25;;;;;;;19.18;95.79;99591.80;1720571;83;21063;-70
2022/07/14 06:31:36;;;;;;;4.53;1.20;;;;;;;19.46;94.61;99593.54;1720768;83;21528;-69
2022/07/14 06:34:05;;;;;;;6.03;1.20;;;;;;;19.82;91.53;99599.02;1720977;83;21019;-71
2022/07/14 06:36:33;;;;;;;1.50;0.93;;;;;;;20.12;91.44;99599.58;1720032;83;21339;-71
2022/07/14 06:39:00;;;;;;;3.30;1.57;;;;;;;20.40;87.07;99599.03;1720646;83;21642;-71
2022/07/14 06:41:27;;;;;;;0.95;0.88;;;;;;;20.48;86.24;99597.89;1720721;83;20986;-70
2022/07/14 06:43:55;;;;;;;3.95;1.27;;;;;;;20.62;87.07;99601.58;1719563;83;21037;-69
2022/07/14 06:46:25;;;;;;;4.65;1.10;;;;;;;20.94;85.70;99605.44;1719918;83;21823;-70
2022/07/14 06:48:51;;;;;;;6.53;1.05;;;;;;;21.17;84.92;99605.22;1725717;82;21612;-69
2022/07/14 06:51:18;;;;;;;1.52;0.90;;;;;;;21.31;81.41;99608.00;1725690;81;21255;-68
2022/07/14 06:53:44;;;;;;;1.67;1.10;;;;;;;21.21;80.87;99613.34;1726057;83;21038;-69
2022/07/14 06:56:13;;;;;;;2.77;1.10;;;;;;;21.10;82.71;99614.79;1723805;81;21131;-69
2022/07/14 06:58:48;;;;;;;3.05;1.20;;;;;;;21.12;82.55;99606.97;1643573;84;21101;-69
2022/07/14 07:01:15;;;;;;;1.42;0.85;;;;;;;21.38;82.55;99604.62;1685229;83;21044;-70
2022/07/14 07:03:42;;;;;;;5.70;1.20;;;;;;;21.72;81.45;99596.72;1664059;83;21824;-71
2022/07/14 07:08:54;;;;;;;3.70;1.10;;;;;;;22.77;77.17;99595.28;1663995;83;21384;-69
2022/07/14 07:11:20;;;;;;;2.27;1.02;;;;;;;23.34;74.45;99599.69;1663810;83;21044;-70
2022/07/14 07:13:47;;;;;;;3.70;0.90;;;;;;;23.65;72.47;99603.70;1686860;84;21034;-69
2022/07/14 07:16:14;;;;;;;2.85;1.00;;;;;;;23.69;71.21;99604.73;1690955;84;21764;-70
2022/07/14 07:18:40;;;;;;;1.07;0.98;;;;;;;23.76;69.47;99599.11;1686175;83;21052;-70
2022/07/14 07:21:07;;;;;;;1.42;0.78;;;;;;;23.75;66.84;99598.77;1676413;84;21044;-70
2022/07/14 07:23:34;;;;;;;1.50;0.90;;;;;;;23.98;64.29;99590.56;1691119;84;21049;-69
2022/07/14 07:26:01;;;;;;;5.58;1.30;;;;;;;24.35;64.05;99599.40;1690898;84;21121;-72
2022/07/14 07:28:28;;;;;;;4.78;0.88;;;;;;;24.59;63.21;99597.37;1690901;84;21142;-70
2022/07/14 07:30:55;;;;;;;1.95;1.00;;;;;;;24.75;61.71;99600.14;1690768;84;21051;-71
2022/07/14 07:33:21;;;;;;;1.40;0.80;;;;;;;24.81;60.89;99599.51;1684834;84;21103;-71
2022/07/14 07:35:47;;;;;;;1.50;1.00;;;;;;;24.79;60.50;99594.78;1677345;84;21053;-72
2022/07/14 07:38:14;;;;;;;3.15;0.98;;;;;;;24.84;59.94;99588.41;1690983;84;21064;-69
2022/07/14 07:40:41;;;;;;;2.22;0.98;;;;;;;24.96;59.59;99581.38;1690785;84;21661;-71
2022/07/14 07:43:07;;;;;;;4.60;1.15;;;;;;;25.18;58.42;99588.03;1690922;84;21069;-71
2022/07/14 07:45:34;;;;;;;0.80;0.75;;;;;;;25.36;58.23;99589.30;1672570;83;21207;-70
2022/07/14 07:48:06;;;;;;;3.33;0.80;;;;;;;25.31;57.23;99597.87;1660033;84;21021;-71
2022/07/14 07:50:29;;;;;;;5.92;1.12;;;;;;;25.52;57.34;99585.28;1656613;86;21136;-69
2022/07/14 07:52:56;;;;;;;7.25;1.10;;;;;;;25.64;57.22;99594.72;1693900;83;21233;-70
2022/07/14 07:55:23;;;;;;;5.28;1.10;;;;;;;25.69;56.63;99585.61;1720181;83;21072;-70
2022/07/14 07:57:50;;;;;;;1.10;0.90;;;;;;;25.82;56.85;99594.56;1720691;83;21110;-71
2022/07/14 08:00:16;;;;;;;3.83;1.00;;;;;;;25.77;56.62;99596.06;1720363;83;21043;-72
2022/07/14 08:02:52;;;;;;;1.90;0.80;;;;;;;25.84;56.93;99593.06;1708144;82;21573;-71
2022/07/14 08:05:22;;;;;;;3.05;0.80;;;;;;;26.08;55.50;99597.11;1717829;83;21137;-73
2022/07/14 08:07:49;;;;;;;4.37;1.12;;;;;;;26.26;54.58;99585.30;1718527;83;21045;-70
2022/07/14 08:10:16;;;;;;;1.75;0.90;;;;;;;26.35;54.79;99587.80;1718719;83;21099;-71
2022/07/14 08:12:44;;;;;;;2.02;0.95;;;;;;;26.52;54.49;99583.19;1720766;83;21140;-71
2022/07/14 08:15:11;;;;;;;3.40;0.90;;;;;;;26.76;52.41;99585.53;1720951;83;21525;-69
2022/07/14 08:17:39;;;;;;;4.08;1.27;;;;;;;27.02;51.97;99579.84;1720723;83;21307;-71
2022/07/14 08:20:08;;;;;;;2.55;1.07;;;;;;;27.26;49.73;99582.93;1684825;85;21522;-70
2022/07/14 08:22:35;;;;;;;4.78;1.10;;;;;;;27.55;49.60;99579.54;1686156;85;21051;-70
2022/07/14 08:25:02;;;;;;;1.35;0.90;;;;;;;27.73;48.45;99580.59;1682745;83;21017;-70
2022/07/14 08:27:28;;;;;;;1.77;0.82;;;;;;;27.95;47.46;99583.48;1657136;86;21056;-69
2022/07/14 08:29:55;;;;;;;2.65;0.88;;;;;;;27.95;46.41;99586.19;1691388;84;21122;-70
2022/07/14 08:32:46;;;;;;;5.40;1.87;;;;;;;27.76;46.58;99578.88;1657802;86;21112;-70
2022/07/14 08:35:15;;;;;;;6.70;1.98;;;;;;;27.80;46.12;99576.66;1691643;84;21006;-69
2022/07/14 08:37:42;;;;;;;7.72;1.60;;;;;;;27.76;46.20;99583.45;1691885;84;21069;-70
2022/07/14 08:40:12;;;;;;;2.65;0.60;;;;;;;27.61;45.47;99580.70;1658145;86;21092;-70
2022/07/14 08:42:45;;;;;;;1.95;0.90;;;;;;;27.41;44.10;99582.52;1658324;86;21600;-70
2022/07/14 08:45:15;;;;;;;0.93;0.75;;;;;;;27.17;44.64;99581.27;1675135;84;21057;-69
2022/07/14 08:47:42;;;;;;;3.17;0.80;;;;;;;27.10;44.75;99588.41;1658205;85;21458;-69
2022/07/14 08:50:12;;;;;;;6.03;0.80;;;;;;;27.02;45.16;99588.45;1658192;86;21536;-71
2022/07/14 08:52:43;;;;;;;2.08;0.60;;;;;;;26.99;45.48;99588.30;1691962;84;22094;-70
2022/07/14 08:55:14;;;;;;;1.82;0.80;;;;;;;27.21;45.56;99574.52;1691793;84;21108;-71
2022/07/14 08:57:41;;;;;;;1.47;0.80;;;;;;;27.37;45.12;99577.13;1657986;86;21049;-71
2022/07/14 09:00:12;;;;;;;1.82;1.15;;;;;;;27.37;44.64;99579.83;1658268;86;21069;-70
2022/07/14 09:02:39;;;;;;;;;;;;;;;27.37;43.84;99587.10;1660413;86;21040;-70
2022/07/14 09:05:06;;;;;;;1.00;0.70;;;;;;;27.28;45.53;99589.00;1643665;87;20321;-70
2022/07/14 09:07:36;;;;;;;3.60;0.70;;;;;;;27.24;45.42;99589.05;1650636;86;21561;-70
2022/07/14 09:10:15;;;;;;;2.35;0.80;;;;;;;27.22;45.86;99595.14;1650898;86;21044;-70
2022/07/14 09:12:44;;;;;;;1.60;0.90;;;;;;;27.10;46.34;99599.21;1650796;86;22148;-72
2022/07/14 09:15:56;;;;;;;2.65;0.68;;;;;;;26.95;46.59;99598.61;1650630;86;21624;-70
2022/07/14 09:18:04;;;;;;;6.85;0.93;;;;;;;26.80;46.72;99594.95;1640983;86;21061;-70
2022/07/14 09:20:32;;;;;;;2.72;0.85;;;;;;;26.73;46.46;99602.06;1650642;86;22227;-69
2022/07/14 09:23:02;;;;;;;2.37;0.80;;;;;;;26.48;46.54;99599.42;1650781;86;21077;-70
2022/07/14 09:25:31;;;;;;;1.98;0.90;;;;;;;26.22;47.57;99610.94;1650674;86;21058;-69
2022/07/14 09:27:58;;;;;;;2.65;1.10;;;;;;;26.02;48.59;99609.08;1650879;86;21073;-71
2022/07/14 09:30:25;;;;;;;2.77;1.00;;;;;;;26.04;49.78;99607.06;1650613;86;21113;-72
2022/07/14 09:33:00;;;;;;;2.20;0.93;;;;;;;26.24;49.17;99603.52;1650787;86;21125;-71
2022/07/14 09:35:38;;;;;;;1.95;1.00;;;;;;;26.63;48.51;99591.47;1650677;86;21105;-69
2022/07/14 09:38:23;;;;;;;2.33;1.17;;;;;;;27.03;47.77;99587.42;1650779;86;21093;-71
2022/07/14 09:40:50;;;;;;;4.40;1.00;;;;;;;27.43;47.33;99590.97;1650716;86;21053;-69
2022/07/14 09:43:18;;;;;;;0.80;0.80;;;;;;;27.70;45.60;99590.44;1650906;86;21355;-71
2022/07/14 09:45:50;;;;;;;1.98;0.80;;;;;;;27.96;44.13;99584.66;1650638;85;21148;-71
2022/07/14 09:48:17;;;;;;;2.42;1.00;;;;;;;28.16;44.56;99592.25;1650832;86;21114;-71
2022/07/14 09:50:54;;;;;;;3.60;1.10;;;;;;;28.49;42.51;99583.33;1650977;86;21173;-71
2022/07/14 09:53:26;;;;;;;1.25;0.72;;;;;;;28.65;42.72;99585.85;1656331;85;21564;-71
2022/07/14 09:56:03;;;;;;;12.15;1.00;;;;;;;28.81;42.38;99594.83;1671759;85;21115;-71
2022/07/14 09:58:46;;;;;;;0.62;0.62;;;;;;;29.10;41.07;99591.77;1671985;85;21307;-70
2022/07/14 10:01:15;;;;;;;2.47;1.15;;;;;;;29.14;40.09;99591.72;1671546;85;21043;-71
2022/07/14 10:03:45;;;;;;;2.60;0.90;;;;;;;29.29;40.43;99593.89;1672153;85;21107;-70
2022/07/14 10:06:12;;;;;;;1.43;0.90;;;;;;;29.41;39.69;99597.77;1671978;85;21111;-69
2022/07/14 10:08:45;;;;;;;6.00;1.30;;;;;;;29.45;39.58;99604.50;1671867;85;21048;-70
2022/07/14 10:11:12;;;;;;;2.72;1.10;;;;;;;29.31;40.38;99597.25;1671827;85;21386;-71
2022/07/14 10:13:41;;;;;;;2.75;0.98;;;;;;;29.36;41.38;99592.09;1671800;84;21032;-70
2022/07/14 10:16:07;;;;;;;2.25;0.95;;;;;;;29.55;39.98;99593.84;1654259;85;21093;-71
2022/07/14 10:18:34;;;;;;;1.25;0.78;;;;;;;29.51;40.16;99591.19;1672255;85;21140;-70
2022/07/14 10:21:01;;;;;;;1.27;1.00;;;;;;;29.44;40.24;99603.32;1671977;84;21115;-70
2022/07/14 10:23:29;;;;;;;2.37;1.07;;;;;;;29.29;39.67;99604.73;1672000;85;21552;-70
2022/07/14 10:25:57;;;;;;;3.08;0.80;;;;;;;29.14;40.20;99599.85;1671786;85;21064;-70
2022/07/14 10:28:24;;;;;;;1.85;1.10;;;;;;;29.30;40.89;99594.20;1671948;84;21664;-71
2022/07/14 10:31:47;;;;;;;2.92;1.10;;;;;;;29.34;40.47;99594.14;1671913;85;21079;-72
2022/07/14 10:34:25;;;;;;;1.55;1.12;;;;;;;29.24;40.48;99591.75;1671820;85;21107;-70
2022/07/14 10:37:03;;;;;;;3.67;1.10;;;;;;;29.48;41.02;99587.83;1671695;85;21148;-72
2022/07/14 10:40:14;;;;;;;2.17;1.20;;;;;;;29.81;40.34;99587.33;1671682;85;21626;-70
2022/07/14 10:43:02;;;;;;;4.33;1.45;;;;;;;30.16;39.18;99590.66;1671680;85;21024;-71
2022/07/14 10:45:29;;;;;;;4.67;1.65;;;;;;;30.14;38.98;99584.08;1671960;84;21101;-71
2022/07/14 10:47:55;;;;;;;1.95;1.40;;;;;;;29.82;39.85;99594.45;1672563;84;21036;-70
2022/07/14 10:50:24;;;;;;;5.95;1.50;;;;;;;29.82;39.85;99594.45;1691051;84;21088;-70
2022/07/14 10:53:01;;;;;;;2.25;1.12;;;;;;;29.75;39.21;99588.13;1689477;84;21167;-71
2022/07/14 10:55:32;;;;;;;2.25;1.40;;;;;;;29.95;40.02;99595.59;1706411;84;21064;-71
2022/07/14 10:58:08;;;;;;;5.50;1.62;;;;;;;30.41;40.11;99584.28;1706269;84;22181;-71
2022/07/14 11:00:55;;;;;;;3.10;1.50;;;;;;;30.63;38.71;99585.89;1706291;84;21071;-71
2022/07/14 11:03:29;;;;;;;2.67;1.42;;;;;;;30.75;37.82;99582.08;1660497;86;21879;-70
2022/07/14 11:06:11;;;;;;;2.33;1.50;;;;;;;30.86;37.95;99603.81;1696638;84;21099;-71
2022/07/14 11:08:41;;;;;;;3.25;1.42;;;;;;;30.85;38.34;99595.33;1706243;83;21522;-70
2022/07/14 11:11:23;;;;;;;4.50;1.40;;;;;;;30.89;37.57;99594.72;1706727;83;21120;-71
2022/07/14 11:14:06;;;;;;;5.20;1.52;;;;;;;30.88;37.30;99588.15;1706474;83;21084;-71
2022/07/14 11:16:51;;;;;;;4.05;1.75;;;;;;;30.59;37.84;99584.60;1706442;83;21166;-72
2022/07/14 11:19:31;;;;;;;3.90;1.50;;;;;;;30.46;38.05;99594.89;1660338;86;21091;-70
2022/07/14 11:22:20;;;;;;;3.40;1.52;;;;;;;30.20;38.25;99592.77;1706295;84;21067;-70
2022/07/14 11:25:00;;;;;;;4.53;1.57;;;;;;;30.20;38.25;99592.77;1706192;84;21014;-70
2022/07/14 11:27:40;;;;;;;3.98;1.75;;;;;;;29.68;38.56;99596.73;1706477;84;21073;-72
2022/07/14 11:30:25;;;;;;;2.00;1.60;;;;;;;29.33;39.67;99606.53;1706197;84;21166;-71
2022/07/14 11:33:07;;;;;;;3.87;1.75;;;;;;;29.27;40.41;99602.73;1703448;84;21656;-71
2022/07/14 11:38:39;;;;;;;11.35;2.00;;;;;;;29.01;39.83;99591.86;1660329;86;21168;-70
2022/07/14 11:41:13;;;;;;;3.12;1.30;;;;;;;29.00;40.38;99593.39;1706158;84;21786;-70
2022/07/14 11:43:45;;;;;;;3.25;1.60;;;;;;;29.01;39.47;99599.99;1660424;86;21672;-70
2022/07/14 11:46:15;;;;;;;3.40;1.55;;;;;;;28.93;38.86;99594.66;1706110;84;21624;-71
2022/07/14 11:48:48;;;;;;;2.10;1.27;;;;;;;28.86;39.13;99596.45;1707878;82;21069;-71
2022/07/14 11:51:26;;;;;;;4.33;1.65;;;;;;;28.94;39.68;99594.14;1716875;82;21124;-70